sensor_id;sensor_type;location;lat;lon;timestamp;P1;durP1;ratioP1;P2;durP2;ratioP2
58376;SDS011;58852;43.460;19.812;2022-08-21T00:00:55;14.85;;;9.23;;
58376;SDS011;58852;43.460;19.812;2022-08-21T00:03:21;12.60;;;8.18;;
58376;SDS011;58852;43.460;19.812;2022-08-21T00:05:48;11.35;;;8.15;;
58376;SDS011;58852;43.460;19.812;2022-08-21T00:08:16;13.32;;;8.52;;
58376;SDS011;58852;43.460;19.812;2022-08-21T00:10:42;11.77;;;8.32;;
58376;SDS011;58852;43.460;19.812;2022-08-21T00:13:09;15.30;;;9.45;;
58376;SDS011;58852;43.460;19.812;2022-08-21T00:15:36;14.82;;;8.25;;
58376;SDS011;58852;43.460;19.812;2022-08-21T00:18:03;15.18;;;7.38;;
58376;SDS011;58852;43.460;19.812;2022-08-21T00:20:29;16.85;;;9.13;;
58376;SDS011;58852;43.460;19.812;2022-08-21T00:22:55;12.90;;;8.20;;
58376;SDS011;58852;43.460;19.812;2022-08-21T00:25:21;12.82;;;8.02;;
58376;SDS011;58852;43.460;19.812;2022-08-21T00:27:47;15.13;;;8.88;;
58376;SDS011;58852;43.460;19.812;2022-08-21T00:30:15;17.00;;;10.02;;
58376;SDS011;58852;43.460;19.812;2022-08-21T00:32:42;12.10;;;7.15;;
58376;SDS011;58852;43.460;19.812;2022-08-21T00:35:10;12.02;;;8.23;;
58376;SDS011;58852;43.460;19.812;2022-08-21T00:37:37;18.88;;;10.95;;
58376;SDS011;58852;43.460;19.812;2022-08-21T00:40:05;17.80;;;9.90;;
58376;SDS011;58852;43.460;19.812;2022-08-21T00:42:31;16.50;;;10.25;;
58376;SDS011;58852;43.460;19.812;2022-08-21T00:44:57;20.27;;;11.80;;
58376;SDS011;58852;43.460;19.812;2022-08-21T00:47:24;17.95;;;12.18;;
58376;SDS011;58852;43.460;19.812;2022-08-21T00:49:50;18.10;;;12.02;;
58376;SDS011;58852;43.460;19.812;2022-08-21T00:52:19;17.77;;;10.52;;
58376;SDS011;58852;43.460;19.812;2022-08-21T00:54:46;20.15;;;11.00;;
58376;SDS011;58852;43.460;19.812;2022-08-21T00:57:15;19.92;;;11.32;;
58376;SDS011;58852;43.460;19.812;2022-08-21T00:59:41;20.45;;;11.02;;
58376;SDS011;58852;43.460;19.812;2022-08-21T01:02:09;19.20;;;10.27;;
58376;SDS011;58852;43.460;19.812;2022-08-21T01:04:35;19.73;;;11.93;;
58376;SDS011;58852;43.460;19.812;2022-08-21T01:07:01;15.77;;;11.07;;
58376;SDS011;58852;43.460;19.812;2022-08-21T01:09:28;14.50;;;10.50;;
58376;SDS011;58852;43.460;19.812;2022-08-21T01:11:54;16.40;;;10.07;;
58376;SDS011;58852;43.460;19.812;2022-08-21T01:14:20;18.30;;;11.23;;
58376;SDS011;58852;43.460;19.812;2022-08-21T01:16:47;19.35;;;12.30;;
58376;SDS011;58852;43.460;19.812;2022-08-21T01:19:14;19.60;;;11.15;;
58376;SDS011;58852;43.460;19.812;2022-08-21T01:21:41;15.13;;;10.48;;
58376;SDS011;58852;43.460;19.812;2022-08-21T01:24:07;15.80;;;10.65;;
58376;SDS011;58852;43.460;19.812;2022-08-21T01:26:33;15.30;;;9.93;;
58376;SDS011;58852;43.460;19.812;2022-08-21T01:31:27;17.27;;;11.13;;
58376;SDS011;58852;43.460;19.812;2022-08-21T01:33:54;17.70;;;10.75;;
58376;SDS011;58852;43.460;19.812;2022-08-21T01:36:21;17.02;;;9.77;;
58376;SDS011;58852;43.460;19.812;2022-08-21T01:38:47;15.10;;;9.68;;
58376;SDS011;58852;43.460;19.812;2022-08-21T01:41:14;16.23;;;9.40;;
58376;SDS011;58852;43.460;19.812;2022-08-21T01:43:40;18.25;;;9.98;;
58376;SDS011;58852;43.460;19.812;2022-08-21T01:46:06;14.38;;;9.90;;
58376;SDS011;58852;43.460;19.812;2022-08-21T01:48:32;12.82;;;9.35;;
58376;SDS011;58852;43.460;19.812;2022-08-21T01:50:58;19.02;;;9.35;;
58376;SDS011;58852;43.460;19.812;2022-08-21T01:53:25;16.25;;;10.45;;
58376;SDS011;58852;43.460;19.812;2022-08-21T01:55:51;15.05;;;10.07;;
58376;SDS011;58852;43.460;19.812;2022-08-21T01:58:17;12.55;;;9.20;;
58376;SDS011;58852;43.460;19.812;2022-08-21T02:00:43;14.73;;;8.15;;
58376;SDS011;58852;43.460;19.812;2022-08-21T02:03:09;13.43;;;8.07;;
58376;SDS011;58852;43.460;19.812;2022-08-21T02:05:36;10.80;;;8.00;;
58376;SDS011;58852;43.460;19.812;2022-08-21T02:08:02;12.20;;;7.90;;
58376;SDS011;58852;43.460;19.812;2022-08-21T02:10:29;11.95;;;8.10;;
58376;SDS011;58852;43.460;19.812;2022-08-21T02:12:56;15.00;;;9.20;;
58376;SDS011;58852;43.460;19.812;2022-08-21T02:15:24;13.65;;;9.52;;
58376;SDS011;58852;43.460;19.812;2022-08-21T02:17:53;14.40;;;9.73;;
58376;SDS011;58852;43.460;19.812;2022-08-21T02:20:41;14.95;;;10.43;;
58376;SDS011;58852;43.460;19.812;2022-08-21T02:23:06;17.05;;;12.25;;
58376;SDS011;58852;43.460;19.812;2022-08-21T02:25:32;18.77;;;12.18;;
58376;SDS011;58852;43.460;19.812;2022-08-21T02:27:59;20.05;;;11.05;;
58376;SDS011;58852;43.460;19.812;2022-08-21T02:30:27;15.80;;;10.80;;
58376;SDS011;58852;43.460;19.812;2022-08-21T02:32:53;14.27;;;10.13;;
58376;SDS011;58852;43.460;19.812;2022-08-21T02:35:20;21.42;;;11.48;;
58376;SDS011;58852;43.460;19.812;2022-08-21T02:37:58;18.90;;;11.00;;
58376;SDS011;58852;43.460;19.812;2022-08-21T02:40:26;19.77;;;12.52;;
58376;SDS011;58852;43.460;19.812;2022-08-21T02:42:52;20.10;;;12.55;;
58376;SDS011;58852;43.460;19.812;2022-08-21T02:45:18;20.17;;;13.52;;
58376;SDS011;58852;43.460;19.812;2022-08-21T02:47:48;22.52;;;12.25;;
58376;SDS011;58852;43.460;19.812;2022-08-21T02:50:17;17.92;;;11.23;;
58376;SDS011;58852;43.460;19.812;2022-08-21T02:52:43;16.40;;;11.20;;
58376;SDS011;58852;43.460;19.812;2022-08-21T02:55:10;19.77;;;11.48;;
58376;SDS011;58852;43.460;19.812;2022-08-21T02:57:36;18.83;;;13.00;;
58376;SDS011;58852;43.460;19.812;2022-08-21T03:00:03;21.52;;;13.75;;
58376;SDS011;58852;43.460;19.812;2022-08-21T03:02:29;21.70;;;13.90;;
58376;SDS011;58852;43.460;19.812;2022-08-21T03:04:56;32.65;;;14.70;;
58376;SDS011;58852;43.460;19.812;2022-08-21T03:07:22;21.50;;;13.07;;
58376;SDS011;58852;43.460;19.812;2022-08-21T03:09:48;19.35;;;12.50;;
58376;SDS011;58852;43.460;19.812;2022-08-21T03:12:14;18.35;;;11.38;;
58376;SDS011;58852;43.460;19.812;2022-08-21T03:14:40;18.50;;;11.32;;
58376;SDS011;58852;43.460;19.812;2022-08-21T03:17:06;21.55;;;12.90;;
58376;SDS011;58852;43.460;19.812;2022-08-21T03:19:32;21.40;;;12.38;;
58376;SDS011;58852;43.460;19.812;2022-08-21T03:21:58;18.92;;;11.65;;
58376;SDS011;58852;43.460;19.812;2022-08-21T03:24:24;35.10;;;12.88;;
58376;SDS011;58852;43.460;19.812;2022-08-21T03:26:51;74.03;;;17.42;;
58376;SDS011;58852;43.460;19.812;2022-08-21T03:29:17;42.45;;;14.20;;
58376;SDS011;58852;43.460;19.812;2022-08-21T03:31:43;32.10;;;13.52;;
58376;SDS011;58852;43.460;19.812;2022-08-21T03:34:09;11.68;;;8.73;;
58376;SDS011;58852;43.460;19.812;2022-08-21T03:36:35;13.82;;;9.38;;
58376;SDS011;58852;43.460;19.812;2022-08-21T03:39:02;15.68;;;10.90;;
58376;SDS011;58852;43.460;19.812;2022-08-21T03:41:28;16.25;;;9.65;;
58376;SDS011;58852;43.460;19.812;2022-08-21T03:43:54;13.23;;;9.88;;
58376;SDS011;58852;43.460;19.812;2022-08-21T03:46:20;19.25;;;9.45;;
58376;SDS011;58852;43.460;19.812;2022-08-21T03:48:46;13.38;;;8.23;;
58376;SDS011;58852;43.460;19.812;2022-08-21T03:51:13;12.35;;;8.90;;
58376;SDS011;58852;43.460;19.812;2022-08-21T03:53:39;12.65;;;8.77;;
58376;SDS011;58852;43.460;19.812;2022-08-21T03:56:06;13.73;;;9.70;;
58376;SDS011;58852;43.460;19.812;2022-08-21T03:58:32;17.58;;;11.55;;
58376;SDS011;58852;43.460;19.812;2022-08-21T04:00:59;19.85;;;10.57;;
58376;SDS011;58852;43.460;19.812;2022-08-21T04:03:25;16.00;;;8.82;;
58376;SDS011;58852;43.460;19.812;2022-08-21T04:05:51;14.88;;;8.90;;
58376;SDS011;58852;43.460;19.812;2022-08-21T04:08:18;15.05;;;9.10;;
58376;SDS011;58852;43.460;19.812;2022-08-21T04:10:45;14.38;;;8.80;;
58376;SDS011;58852;43.460;19.812;2022-08-21T04:13:12;16.83;;;9.77;;
58376;SDS011;58852;43.460;19.812;2022-08-21T04:15:39;14.77;;;9.05;;
58376;SDS011;58852;43.460;19.812;2022-08-21T04:18:06;16.58;;;9.05;;
58376;SDS011;58852;43.460;19.812;2022-08-21T04:20:33;14.90;;;8.93;;
58376;SDS011;58852;43.460;19.812;2022-08-21T04:23:00;16.45;;;9.43;;
58376;SDS011;58852;43.460;19.812;2022-08-21T04:25:26;15.30;;;9.30;;
58376;SDS011;58852;43.460;19.812;2022-08-21T04:27:52;15.82;;;9.07;;
58376;SDS011;58852;43.460;19.812;2022-08-21T04:30:18;16.17;;;10.07;;
58376;SDS011;58852;43.460;19.812;2022-08-21T04:32:48;13.07;;;8.57;;
58376;SDS011;58852;43.460;19.812;2022-08-21T04:35:16;10.32;;;7.43;;
58376;SDS011;58852;43.460;19.812;2022-08-21T04:37:42;11.80;;;8.55;;
58376;SDS011;58852;43.460;19.812;2022-08-21T04:40:10;15.20;;;8.57;;
58376;SDS011;58852;43.460;19.812;2022-08-21T04:42:41;12.00;;;8.05;;
58376;SDS011;58852;43.460;19.812;2022-08-21T04:45:09;13.15;;;8.45;;
58376;SDS011;58852;43.460;19.812;2022-08-21T04:47:35;12.18;;;7.10;;
58376;SDS011;58852;43.460;19.812;2022-08-21T04:50:01;13.13;;;8.15;;
58376;SDS011;58852;43.460;19.812;2022-08-21T04:52:27;13.88;;;8.05;;
58376;SDS011;58852;43.460;19.812;2022-08-21T04:54:53;12.23;;;7.95;;
58376;SDS011;58852;43.460;19.812;2022-08-21T04:57:20;14.85;;;8.65;;
58376;SDS011;58852;43.460;19.812;2022-08-21T04:59:47;13.77;;;8.80;;
58376;SDS011;58852;43.460;19.812;2022-08-21T05:02:14;13.35;;;7.20;;
58376;SDS011;58852;43.460;19.812;2022-08-21T05:04:44;13.55;;;7.72;;
58376;SDS011;58852;43.460;19.812;2022-08-21T05:07:12;15.32;;;6.97;;
58376;SDS011;58852;43.460;19.812;2022-08-21T05:09:39;12.00;;;7.35;;
58376;SDS011;58852;43.460;19.812;2022-08-21T05:12:05;11.00;;;7.32;;
58376;SDS011;58852;43.460;19.812;2022-08-21T05:14:31;17.02;;;9.35;;
58376;SDS011;58852;43.460;19.812;2022-08-21T05:16:58;12.05;;;7.55;;
58376;SDS011;58852;43.460;19.812;2022-08-21T05:19:24;13.43;;;6.75;;
58376;SDS011;58852;43.460;19.812;2022-08-21T05:21:50;13.68;;;7.28;;
58376;SDS011;58852;43.460;19.812;2022-08-21T05:24:17;9.48;;;7.15;;
58376;SDS011;58852;43.460;19.812;2022-08-21T05:26:43;10.98;;;7.85;;
58376;SDS011;58852;43.460;19.812;2022-08-21T05:29:09;11.27;;;7.47;;
58376;SDS011;58852;43.460;19.812;2022-08-21T05:31:36;13.20;;;7.65;;
58376;SDS011;58852;43.460;19.812;2022-08-21T05:34:02;13.25;;;8.00;;
58376;SDS011;58852;43.460;19.812;2022-08-21T05:36:28;15.30;;;7.18;;
58376;SDS011;58852;43.460;19.812;2022-08-21T05:38:54;11.60;;;7.63;;
58376;SDS011;58852;43.460;19.812;2022-08-21T05:41:20;11.63;;;7.32;;
58376;SDS011;58852;43.460;19.812;2022-08-21T05:43:47;11.00;;;6.85;;
58376;SDS011;58852;43.460;19.812;2022-08-21T05:46:13;14.55;;;7.60;;
58376;SDS011;58852;43.460;19.812;2022-08-21T05:48:39;9.38;;;6.57;;
58376;SDS011;58852;43.460;19.812;2022-08-21T05:51:06;13.45;;;7.97;;
58376;SDS011;58852;43.460;19.812;2022-08-21T05:53:33;12.45;;;8.05;;
58376;SDS011;58852;43.460;19.812;2022-08-21T05:55:59;14.20;;;7.50;;
58376;SDS011;58852;43.460;19.812;2022-08-21T05:58:25;9.90;;;6.65;;
58376;SDS011;58852;43.460;19.812;2022-08-21T06:00:51;9.85;;;7.28;;
58376;SDS011;58852;43.460;19.812;2022-08-21T06:03:19;13.70;;;6.65;;
58376;SDS011;58852;43.460;19.812;2022-08-21T06:05:46;11.68;;;6.90;;
58376;SDS011;58852;43.460;19.812;2022-08-21T06:08:13;11.48;;;7.22;;
58376;SDS011;58852;43.460;19.812;2022-08-21T06:10:39;10.98;;;7.15;;
58376;SDS011;58852;43.460;19.812;2022-08-21T06:13:05;12.38;;;6.72;;
58376;SDS011;58852;43.460;19.812;2022-08-21T06:15:31;11.48;;;7.07;;
58376;SDS011;58852;43.460;19.812;2022-08-21T06:17:57;8.80;;;6.32;;
58376;SDS011;58852;43.460;19.812;2022-08-21T06:20:23;25.98;;;16.02;;
58376;SDS011;58852;43.460;19.812;2022-08-21T06:22:49;13.20;;;8.55;;
58376;SDS011;58852;43.460;19.812;2022-08-21T06:25:15;13.15;;;7.82;;
58376;SDS011;58852;43.460;19.812;2022-08-21T06:27:41;12.10;;;7.38;;
58376;SDS011;58852;43.460;19.812;2022-08-21T06:30:08;14.60;;;8.32;;
58376;SDS011;58852;43.460;19.812;2022-08-21T06:32:34;20.10;;;13.68;;
58376;SDS011;58852;43.460;19.812;2022-08-21T06:35:01;13.73;;;7.60;;
58376;SDS011;58852;43.460;19.812;2022-08-21T06:37:27;14.23;;;8.00;;
58376;SDS011;58852;43.460;19.812;2022-08-21T06:39:54;11.40;;;7.20;;
58376;SDS011;58852;43.460;19.812;2022-08-21T06:42:20;18.58;;;7.90;;
58376;SDS011;58852;43.460;19.812;2022-08-21T06:44:46;13.25;;;7.53;;
58376;SDS011;58852;43.460;19.812;2022-08-21T06:47:12;13.65;;;8.02;;
58376;SDS011;58852;43.460;19.812;2022-08-21T06:49:38;14.38;;;9.40;;
58376;SDS011;58852;43.460;19.812;2022-08-21T06:52:08;14.02;;;8.27;;
58376;SDS011;58852;43.460;19.812;2022-08-21T06:54:35;14.27;;;8.73;;
58376;SDS011;58852;43.460;19.812;2022-08-21T06:57:01;13.15;;;8.52;;
58376;SDS011;58852;43.460;19.812;2022-08-21T06:59:27;13.77;;;9.13;;
58376;SDS011;58852;43.460;19.812;2022-08-21T07:01:53;15.05;;;8.63;;
58376;SDS011;58852;43.460;19.812;2022-08-21T07:04:19;11.05;;;7.63;;
58376;SDS011;58852;43.460;19.812;2022-08-21T07:06:45;12.73;;;7.43;;
58376;SDS011;58852;43.460;19.812;2022-08-21T07:09:11;10.73;;;7.40;;
58376;SDS011;58852;43.460;19.812;2022-08-21T07:11:37;10.77;;;6.85;;
58376;SDS011;58852;43.460;19.812;2022-08-21T07:14:04;11.50;;;7.30;;
58376;SDS011;58852;43.460;19.812;2022-08-21T07:16:30;10.80;;;6.80;;
58376;SDS011;58852;43.460;19.812;2022-08-21T07:18:56;12.80;;;7.25;;
58376;SDS011;58852;43.460;19.812;2022-08-21T07:21:22;12.50;;;7.47;;
58376;SDS011;58852;43.460;19.812;2022-08-21T07:23:50;13.73;;;7.47;;
58376;SDS011;58852;43.460;19.812;2022-08-21T07:26:18;10.52;;;7.47;;
58376;SDS011;58852;43.460;19.812;2022-08-21T07:28:46;13.35;;;7.63;;
58376;SDS011;58852;43.460;19.812;2022-08-21T07:31:12;11.80;;;7.13;;
58376;SDS011;58852;43.460;19.812;2022-08-21T07:33:39;15.32;;;7.85;;
58376;SDS011;58852;43.460;19.812;2022-08-21T07:36:06;15.43;;;8.05;;
58376;SDS011;58852;43.460;19.812;2022-08-21T07:38:32;13.70;;;7.45;;
58376;SDS011;58852;43.460;19.812;2022-08-21T07:40:59;13.32;;;7.40;;
58376;SDS011;58852;43.460;19.812;2022-08-21T07:43:26;9.75;;;7.22;;
58376;SDS011;58852;43.460;19.812;2022-08-21T07:45:56;10.43;;;6.30;;
58376;SDS011;58852;43.460;19.812;2022-08-21T07:48:24;10.15;;;5.97;;
58376;SDS011;58852;43.460;19.812;2022-08-21T07:50:50;11.98;;;7.28;;
58376;SDS011;58852;43.460;19.812;2022-08-21T07:53:16;15.25;;;6.68;;
58376;SDS011;58852;43.460;19.812;2022-08-21T07:55:42;9.60;;;7.00;;
58376;SDS011;58852;43.460;19.812;2022-08-21T07:58:08;14.40;;;7.95;;
58376;SDS011;58852;43.460;19.812;2022-08-21T08:00:35;10.38;;;6.78;;
58376;SDS011;58852;43.460;19.812;2022-08-21T08:03:01;10.98;;;7.40;;
58376;SDS011;58852;43.460;19.812;2022-08-21T08:05:28;14.57;;;7.05;;
58376;SDS011;58852;43.460;19.812;2022-08-21T08:07:55;11.88;;;7.28;;
58376;SDS011;58852;43.460;19.812;2022-08-21T08:10:21;12.75;;;6.57;;
58376;SDS011;58852;43.460;19.812;2022-08-21T08:12:48;18.05;;;7.72;;
58376;SDS011;58852;43.460;19.812;2022-08-21T08:15:17;12.55;;;6.80;;
58376;SDS011;58852;43.460;19.812;2022-08-21T08:17:44;17.30;;;9.63;;
58376;SDS011;58852;43.460;19.812;2022-08-21T08:20:10;11.60;;;6.35;;
58376;SDS011;58852;43.460;19.812;2022-08-21T08:22:38;8.50;;;6.15;;
58376;SDS011;58852;43.460;19.812;2022-08-21T08:25:04;9.65;;;6.95;;
58376;SDS011;58852;43.460;19.812;2022-08-21T08:27:31;11.23;;;6.60;;
58376;SDS011;58852;43.460;19.812;2022-08-21T08:29:57;11.35;;;6.53;;
58376;SDS011;58852;43.460;19.812;2022-08-21T08:32:24;9.02;;;6.43;;
58376;SDS011;58852;43.460;19.812;2022-08-21T08:34:50;11.15;;;5.32;;
58376;SDS011;58852;43.460;19.812;2022-08-21T08:37:18;9.60;;;5.70;;
58376;SDS011;58852;43.460;19.812;2022-08-21T08:39:44;9.75;;;6.03;;
58376;SDS011;58852;43.460;19.812;2022-08-21T08:42:14;10.40;;;7.13;;
58376;SDS011;58852;43.460;19.812;2022-08-21T08:44:41;11.20;;;5.97;;
58376;SDS011;58852;43.460;19.812;2022-08-21T08:47:08;9.70;;;6.28;;
58376;SDS011;58852;43.460;19.812;2022-08-21T08:49:37;9.05;;;5.38;;
58376;SDS011;58852;43.460;19.812;2022-08-21T08:52:07;11.65;;;6.05;;
58376;SDS011;58852;43.460;19.812;2022-08-21T08:54:44;8.60;;;5.68;;
58376;SDS011;58852;43.460;19.812;2022-08-21T08:57:18;7.90;;;5.47;;
58376;SDS011;58852;43.460;19.812;2022-08-21T08:59:45;8.95;;;5.75;;
58376;SDS011;58852;43.460;19.812;2022-08-21T09:02:13;14.63;;;5.85;;
58376;SDS011;58852;43.460;19.812;2022-08-21T09:04:39;8.63;;;4.70;;
58376;SDS011;58852;43.460;19.812;2022-08-21T09:07:12;9.35;;;5.70;;
58376;SDS011;58852;43.460;19.812;2022-08-21T09:09:51;7.50;;;5.57;;
58376;SDS011;58852;43.460;19.812;2022-08-21T09:25:20;9.07;;;5.03;;
58376;SDS011;58852;43.460;19.812;2022-08-21T09:27:47;6.57;;;4.65;;
58376;SDS011;58852;43.460;19.812;2022-08-21T09:30:13;8.70;;;5.43;;
58376;SDS011;58852;43.460;19.812;2022-08-21T09:32:40;6.78;;;5.43;;
58376;SDS011;58852;43.460;19.812;2022-08-21T09:35:17;7.35;;;4.50;;
58376;SDS011;58852;43.460;19.812;2022-08-21T09:37:47;5.20;;;2.75;;
58376;SDS011;58852;43.460;19.812;2022-08-21T09:42:59;7.03;;;3.45;;
58376;SDS011;58852;43.460;19.812;2022-08-21T09:45:26;5.95;;;3.30;;
58376;SDS011;58852;43.460;19.812;2022-08-21T09:47:52;7.18;;;2.80;;
58376;SDS011;58852;43.460;19.812;2022-08-21T09:50:23;4.40;;;2.10;;
58376;SDS011;58852;43.460;19.812;2022-08-21T09:52:56;4.50;;;2.42;;
58376;SDS011;58852;43.460;19.812;2022-08-21T09:55:34;3.17;;;2.10;;
58376;SDS011;58852;43.460;19.812;2022-08-21T09:58:29;6.45;;;3.08;;
58376;SDS011;58852;43.460;19.812;2022-08-21T10:00:57;4.78;;;3.05;;
58376;SDS011;58852;43.460;19.812;2022-08-21T10:03:23;3.50;;;2.50;;
58376;SDS011;58852;43.460;19.812;2022-08-21T10:05:51;3.90;;;2.63;;
58376;SDS011;58852;43.460;19.812;2022-08-21T10:08:18;4.90;;;2.80;;
58376;SDS011;58852;43.460;19.812;2022-08-21T10:10:44;4.13;;;3.00;;
58376;SDS011;58852;43.460;19.812;2022-08-21T10:13:16;7.15;;;3.63;;
58376;SDS011;58852;43.460;19.812;2022-08-21T10:18:27;4.15;;;2.15;;
58376;SDS011;58852;43.460;19.812;2022-08-21T10:23:41;4.38;;;3.13;;
58376;SDS011;58852;43.460;19.812;2022-08-21T10:37:17;6.70;;;3.30;;
58376;SDS011;58852;43.460;19.812;2022-08-21T10:42:25;7.05;;;3.55;;
58376;SDS011;58852;43.460;19.812;2022-08-21T10:47:57;8.10;;;2.67;;
58376;SDS011;58852;43.460;19.812;2022-08-21T10:52:56;4.65;;;2.22;;
58376;SDS011;58852;43.460;19.812;2022-08-21T10:56:12;3.05;;;2.33;;
58376;SDS011;58852;43.460;19.812;2022-08-21T10:58:22;3.05;;;1.90;;
58376;SDS011;58852;43.460;19.812;2022-08-21T11:00:53;3.22;;;1.88;;
58376;SDS011;58852;43.460;19.812;2022-08-21T11:03:24;3.25;;;2.33;;
58376;SDS011;58852;43.460;19.812;2022-08-21T11:05:52;3.20;;;2.20;;
58376;SDS011;58852;43.460;19.812;2022-08-21T11:08:29;6.38;;;1.95;;
58376;SDS011;58852;43.460;19.812;2022-08-21T11:13:44;4.63;;;2.35;;
58376;SDS011;58852;43.460;19.812;2022-08-21T11:16:18;4.00;;;2.47;;
58376;SDS011;58852;43.460;19.812;2022-08-21T11:18:49;6.18;;;3.17;;
58376;SDS011;58852;43.460;19.812;2022-08-21T11:24:01;3.00;;;1.98;;
58376;SDS011;58852;43.460;19.812;2022-08-21T11:28:55;2.53;;;1.77;;
58376;SDS011;58852;43.460;19.812;2022-08-21T11:39:16;4.85;;;2.10;;
58376;SDS011;58852;43.460;19.812;2022-08-21T11:52:28;4.75;;;2.88;;
58376;SDS011;58852;43.460;19.812;2022-08-21T11:57:29;5.70;;;2.72;;
58376;SDS011;58852;43.460;19.812;2022-08-21T12:02:31;4.40;;;2.92;;
58376;SDS011;58852;43.460;19.812;2022-08-21T12:05:00;3.58;;;2.38;;
58376;SDS011;58852;43.460;19.812;2022-08-21T12:07:33;5.07;;;3.70;;
58376;SDS011;58852;43.460;19.812;2022-08-21T12:09:59;7.78;;;4.80;;
58376;SDS011;58852;43.460;19.812;2022-08-21T12:12:29;6.40;;;3.53;;
58376;SDS011;58852;43.460;19.812;2022-08-21T12:18:02;5.15;;;3.90;;
58376;SDS011;58852;43.460;19.812;2022-08-21T12:28:22;4.28;;;2.58;;
58376;SDS011;58852;43.460;19.812;2022-08-21T12:30:49;4.05;;;2.83;;
58376;SDS011;58852;43.460;19.812;2022-08-21T12:35:44;3.47;;;1.98;;
58376;SDS011;58852;43.460;19.812;2022-08-21T12:40:46;3.85;;;2.28;;
58376;SDS011;58852;43.460;19.812;2022-08-21T12:43:14;3.42;;;2.05;;
58376;SDS011;58852;43.460;19.812;2022-08-21T12:45:43;3.70;;;2.00;;
58376;SDS011;58852;43.460;19.812;2022-08-21T12:48:14;4.55;;;2.95;;
58376;SDS011;58852;43.460;19.812;2022-08-21T12:50:45;3.80;;;2.65;;
58376;SDS011;58852;43.460;19.812;2022-08-21T12:53:15;5.78;;;2.90;;
58376;SDS011;58852;43.460;19.812;2022-08-21T12:55:43;3.80;;;2.50;;
58376;SDS011;58852;43.460;19.812;2022-08-21T13:00:47;4.32;;;2.70;;
58376;SDS011;58852;43.460;19.812;2022-08-21T13:03:14;4.50;;;3.45;;
58376;SDS011;58852;43.460;19.812;2022-08-21T13:05:40;4.13;;;2.88;;
58376;SDS011;58852;43.460;19.812;2022-08-21T13:08:07;5.97;;;3.35;;
58376;SDS011;58852;43.460;19.812;2022-08-21T13:10:35;5.93;;;3.28;;
58376;SDS011;58852;43.460;19.812;2022-08-21T13:13:03;6.38;;;3.97;;
58376;SDS011;58852;43.460;19.812;2022-08-21T13:15:31;5.05;;;3.58;;
58376;SDS011;58852;43.460;19.812;2022-08-21T13:17:57;6.65;;;4.30;;
58376;SDS011;58852;43.460;19.812;2022-08-21T13:20:29;5.38;;;3.72;;
58376;SDS011;58852;43.460;19.812;2022-08-21T13:22:55;5.63;;;3.97;;
58376;SDS011;58852;43.460;19.812;2022-08-21T13:25:25;5.85;;;4.15;;
58376;SDS011;58852;43.460;19.812;2022-08-21T13:28:05;5.40;;;3.65;;
58376;SDS011;58852;43.460;19.812;2022-08-21T13:30:32;5.22;;;3.83;;
58376;SDS011;58852;43.460;19.812;2022-08-21T13:32:59;5.60;;;4.20;;
58376;SDS011;58852;43.460;19.812;2022-08-21T13:37:52;6.25;;;4.35;;
58376;SDS011;58852;43.460;19.812;2022-08-21T13:40:23;6.30;;;4.70;;
58376;SDS011;58852;43.460;19.812;2022-08-21T13:42:49;5.55;;;4.20;;
58376;SDS011;58852;43.460;19.812;2022-08-21T13:45:22;5.07;;;3.95;;
58376;SDS011;58852;43.460;19.812;2022-08-21T13:47:49;7.30;;;4.88;;
58376;SDS011;58852;43.460;19.812;2022-08-21T13:50:16;6.50;;;5.05;;
58376;SDS011;58852;43.460;19.812;2022-08-21T13:52:46;6.10;;;4.55;;
58376;SDS011;58852;43.460;19.812;2022-08-21T13:55:13;4.63;;;3.88;;
58376;SDS011;58852;43.460;19.812;2022-08-21T13:57:39;8.85;;;5.57;;
58376;SDS011;58852;43.460;19.812;2022-08-21T14:00:09;6.68;;;5.03;;
58376;SDS011;58852;43.460;19.812;2022-08-21T14:02:38;10.15;;;5.20;;
58376;SDS011;58852;43.460;19.812;2022-08-21T14:05:04;9.05;;;5.55;;
58376;SDS011;58852;43.460;19.812;2022-08-21T14:07:40;7.38;;;5.53;;
58376;SDS011;58852;43.460;19.812;2022-08-21T14:10:10;6.88;;;5.43;;
58376;SDS011;58852;43.460;19.812;2022-08-21T14:12:45;8.82;;;6.20;;
58376;SDS011;58852;43.460;19.812;2022-08-21T14:15:13;7.85;;;6.30;;
58376;SDS011;58852;43.460;19.812;2022-08-21T14:17:40;8.32;;;7.07;;
58376;SDS011;58852;43.460;19.812;2022-08-21T14:20:08;9.52;;;7.78;;
58376;SDS011;58852;43.460;19.812;2022-08-21T14:22:45;9.80;;;7.47;;
58376;SDS011;58852;43.460;19.812;2022-08-21T14:28:03;9.00;;;7.20;;
58376;SDS011;58852;43.460;19.812;2022-08-21T14:30:33;10.15;;;7.43;;
58376;SDS011;58852;43.460;19.812;2022-08-21T14:33:01;9.30;;;6.18;;
58376;SDS011;58852;43.460;19.812;2022-08-21T14:35:27;12.52;;;8.60;;
58376;SDS011;58852;43.460;19.812;2022-08-21T14:37:53;9.63;;;7.15;;
58376;SDS011;58852;43.460;19.812;2022-08-21T14:40:21;11.25;;;7.50;;
58376;SDS011;58852;43.460;19.812;2022-08-21T14:42:47;12.80;;;8.73;;
58376;SDS011;58852;43.460;19.812;2022-08-21T14:45:18;9.50;;;7.15;;
58376;SDS011;58852;43.460;19.812;2022-08-21T14:47:46;10.23;;;7.63;;
58376;SDS011;58852;43.460;19.812;2022-08-21T14:50:13;10.48;;;7.72;;
58376;SDS011;58852;43.460;19.812;2022-08-21T14:52:39;9.90;;;6.85;;
58376;SDS011;58852;43.460;19.812;2022-08-21T14:55:06;11.13;;;8.23;;
58376;SDS011;58852;43.460;19.812;2022-08-21T14:57:38;8.60;;;7.15;;
58376;SDS011;58852;43.460;19.812;2022-08-21T15:00:05;14.90;;;8.95;;
58376;SDS011;58852;43.460;19.812;2022-08-21T15:02:32;8.98;;;7.60;;
58376;SDS011;58852;43.460;19.812;2022-08-21T15:05:04;8.80;;;7.63;;
58376;SDS011;58852;43.460;19.812;2022-08-21T15:07:31;11.05;;;6.78;;
58376;SDS011;58852;43.460;19.812;2022-08-21T15:09:57;8.25;;;7.40;;
58376;SDS011;58852;43.460;19.812;2022-08-21T15:12:23;8.90;;;7.18;;
58376;SDS011;58852;43.460;19.812;2022-08-21T15:14:50;8.25;;;6.68;;
58376;SDS011;58852;43.460;19.812;2022-08-21T15:17:17;8.25;;;6.28;;
58376;SDS011;58852;43.460;19.812;2022-08-21T15:19:43;9.77;;;7.05;;
58376;SDS011;58852;43.460;19.812;2022-08-21T15:22:10;8.73;;;7.43;;
58376;SDS011;58852;43.460;19.812;2022-08-21T15:24:36;10.57;;;7.20;;
58376;SDS011;58852;43.460;19.812;2022-08-21T15:27:02;10.70;;;7.88;;
58376;SDS011;58852;43.460;19.812;2022-08-21T15:29:29;10.60;;;8.57;;
58376;SDS011;58852;43.460;19.812;2022-08-21T15:31:57;12.32;;;8.90;;
58376;SDS011;58852;43.460;19.812;2022-08-21T15:34:23;9.88;;;8.15;;
58376;SDS011;58852;43.460;19.812;2022-08-21T15:36:50;7.28;;;5.97;;
58376;SDS011;58852;43.460;19.812;2022-08-21T15:39:16;8.73;;;6.82;;
58376;SDS011;58852;43.460;19.812;2022-08-21T15:41:43;11.00;;;7.80;;
58376;SDS011;58852;43.460;19.812;2022-08-21T15:44:09;11.02;;;7.60;;
58376;SDS011;58852;43.460;19.812;2022-08-21T15:46:37;9.20;;;6.82;;
58376;SDS011;58852;43.460;19.812;2022-08-21T15:49:03;9.00;;;6.93;;
58376;SDS011;58852;43.460;19.812;2022-08-21T15:51:29;9.75;;;7.00;;
58376;SDS011;58852;43.460;19.812;2022-08-21T15:53:58;9.45;;;7.38;;
58376;SDS011;58852;43.460;19.812;2022-08-21T15:56:26;9.32;;;7.63;;
58376;SDS011;58852;43.460;19.812;2022-08-21T15:58:54;9.77;;;7.85;;
58376;SDS011;58852;43.460;19.812;2022-08-21T16:01:23;14.10;;;9.85;;
58376;SDS011;58852;43.460;19.812;2022-08-21T16:03:50;16.00;;;10.07;;